sensor_id;sensor_type;location;lat;lon;timestamp;pressure;altitude;pressure_sealevel;temperature;humidity
77062;BME280;65989;51.686;5.138;2023-05-08T00:00:48;102160.41;;;14.58;93.94
77062;BME280;65989;51.686;5.138;2023-05-08T00:03:13;102158.00;;;14.57;93.79
77062;BME280;65989;51.686;5.138;2023-05-08T00:05:42;102148.59;;;14.54;93.94
77062;BME280;65989;51.686;5.138;2023-05-08T00:08:07;102149.09;;;14.51;93.77
77062;BME280;65989;51.686;5.138;2023-05-08T00:10:33;102150.91;;;14.45;93.82
77062;BME280;65989;51.686;5.138;2023-05-08T00:12:58;102148.16;;;14.40;93.84
77062;BME280;65989;51.686;5.138;2023-05-08T00:15:24;102143.09;;;14.39;93.89
77062;BME280;65989;51.686;5.138;2023-05-08T00:17:49;102151.81;;;14.34;93.66
77062;BME280;65989;51.686;5.138;2023-05-08T00:20:14;102144.00;;;14.27;93.55
77062;BME280;65989;51.686;5.138;2023-05-08T00:22:40;102140.78;;;14.25;94.02
77062;BME280;65989;51.686;5.138;2023-05-08T00:25:06;102147.66;;;14.21;93.84
77062;BME280;65989;51.686;5.138;2023-05-08T00:27:31;102142.81;;;14.18;93.73
77062;BME280;65989;51.686;5.138;2023-05-08T00:29:57;102136.34;;;14.14;93.85
77062;BME280;65989;51.686;5.138;2023-05-08T00:32:23;102147.50;;;14.11;93.49
77062;BME280;65989;51.686;5.138;2023-05-08T00:34:49;102146.13;;;14.08;93.94
77062;BME280;65989;51.686;5.138;2023-05-08T00:37:14;102140.53;;;14.10;93.91
77062;BME280;65989;51.686;5.138;2023-05-08T00:39:40;102147.44;;;14.06;93.87
77062;BME280;65989;51.686;5.138;2023-05-08T00:42:05;102142.59;;;14.02;93.88
77062;BME280;65989;51.686;5.138;2023-05-08T00:44:31;102144.94;;;13.99;93.76
77062;BME280;65989;51.686;5.138;2023-05-08T00:46:56;102140.34;;;13.94;93.92
77062;BME280;65989;51.686;5.138;2023-05-08T00:49:22;102142.44;;;13.92;94.05
77062;BME280;65989;51.686;5.138;2023-05-08T00:51:50;102135.41;;;13.86;93.80
77062;BME280;65989;51.686;5.138;2023-05-08T00:54:17;102138.00;;;13.81;93.95
77062;BME280;65989;51.686;5.138;2023-05-08T00:56:44;102146.25;;;13.79;94.08
77062;BME280;65989;51.686;5.138;2023-05-08T00:59:13;102151.47;;;13.74;94.03
77062;BME280;65989;51.686;5.138;2023-05-08T01:01:39;102157.06;;;13.72;94.04
77062;BME280;65989;51.686;5.138;2023-05-08T01:04:05;102149.78;;;13.68;94.03
77062;BME280;65989;51.686;5.138;2023-05-08T01:06:31;102144.94;;;13.65;93.96
77062;BME280;65989;51.686;5.138;2023-05-08T01:08:57;102138.16;;;13.57;94.13
77062;BME280;65989;51.686;5.138;2023-05-08T01:16:43;102145.38;;;13.44;94.06
77062;BME280;65989;51.686;5.138;2023-05-08T01:19:39;102140.78;;;13.40;94.20
77062;BME280;65989;51.686;5.138;2023-05-08T01:22:52;102145.22;;;13.34;93.88
77062;BME280;65989;51.686;5.138;2023-05-08T01:28:25;102141.56;;;13.23;94.02
77062;BME280;65989;51.686;5.138;2023-05-08T01:33:25;102138.94;;;13.11;94.12
77062;BME280;65989;51.686;5.138;2023-05-08T01:39:00;102141.75;;;13.05;93.93
77062;BME280;65989;51.686;5.138;2023-05-08T01:41:30;102142.47;;;13.00;93.78
77062;BME280;65989;51.686;5.138;2023-05-08T01:44:14;102145.34;;;12.98;93.83
77062;BME280;65989;51.686;5.138;2023-05-08T01:46:42;102140.97;;;12.92;94.16
77062;BME280;65989;51.686;5.138;2023-05-08T01:49:22;102144.13;;;12.89;93.85
77062;BME280;65989;51.686;5.138;2023-05-08T01:52:14;102147.81;;;12.88;93.96
77062;BME280;65989;51.686;5.138;2023-05-08T01:54:49;102155.22;;;12.86;94.02
77062;BME280;65989;51.686;5.138;2023-05-08T01:57:21;102158.38;;;12.83;94.12
77062;BME280;65989;51.686;5.138;2023-05-08T01:59:48;102155.59;;;12.78;93.98
77062;BME280;65989;51.686;5.138;2023-05-08T02:02:16;102156.31;;;12.73;94.00
77062;BME280;65989;51.686;5.138;2023-05-08T02:04:43;102157.56;;;12.70;93.73
77062;BME280;65989;51.686;5.138;2023-05-08T02:07:09;102153.75;;;12.66;93.97
77062;BME280;65989;51.686;5.138;2023-05-08T02:09:35;102155.06;;;12.64;94.25
77062;BME280;65989;51.686;5.138;2023-05-08T02:12:02;102166.72;;;12.63;94.21
77062;BME280;65989;51.686;5.138;2023-05-08T02:14:29;102161.88;;;12.60;94.02
77062;BME280;65989;51.686;5.138;2023-05-08T02:16:56;102165.31;;;12.60;94.02
77062;BME280;65989;51.686;5.138;2023-05-08T02:19:24;102168.22;;;12.59;94.21
77062;BME280;65989;51.686;5.138;2023-05-08T02:21:51;102174.59;;;12.58;94.16
77062;BME280;65989;51.686;5.138;2023-05-08T02:24:18;102175.06;;;12.54;94.09
77062;BME280;65989;51.686;5.138;2023-05-08T02:26:45;102177.13;;;12.52;94.32
77062;BME280;65989;51.686;5.138;2023-05-08T02:29:12;102177.59;;;12.49;94.13
77062;BME280;65989;51.686;5.138;2023-05-08T02:31:39;102172.75;;;12.46;94.16
77062;BME280;65989;51.686;5.138;2023-05-08T02:34:07;102169.75;;;12.43;94.29
77062;BME280;65989;51.686;5.138;2023-05-08T02:36:34;102171.59;;;12.42;94.30
77062;BME280;65989;51.686;5.138;2023-05-08T02:39:01;102175.78;;;12.38;94.36
77062;BME280;65989;51.686;5.138;2023-05-08T02:41:29;102180.28;;;12.37;94.19
77062;BME280;65989;51.686;5.138;2023-05-08T02:43:57;102167.44;;;12.34;94.30
77062;BME280;65989;51.686;5.138;2023-05-08T02:46:33;102168.47;;;12.33;94.28
77062;BME280;65989;51.686;5.138;2023-05-08T02:51:55;102161.78;;;12.31;94.44
77062;BME280;65989;51.686;5.138;2023-05-08T02:56:59;102163.16;;;12.33;94.41
77062;BME280;65989;51.686;5.138;2023-05-08T02:59:38;102154.72;;;12.36;94.64
77062;BME280;65989;51.686;5.138;2023-05-08T03:04:50;102157.50;;;12.42;94.84
77062;BME280;65989;51.686;5.138;2023-05-08T03:07:22;102160.97;;;12.42;94.68
77062;BME280;65989;51.686;5.138;2023-05-08T03:09:55;102163.28;;;12.38;94.86
77062;BME280;65989;51.686;5.138;2023-05-08T03:12:23;102151.84;;;12.38;94.58
77062;BME280;65989;51.686;5.138;2023-05-08T03:15:05;102161.19;;;12.40;94.63
77062;BME280;65989;51.686;5.138;2023-05-08T03:17:32;102159.00;;;12.37;95.01
77062;BME280;65989;51.686;5.138;2023-05-08T03:20:02;102151.16;;;12.31;94.75
77062;BME280;65989;51.686;5.138;2023-05-08T03:22:30;102151.38;;;12.29;94.95
77062;BME280;65989;51.686;5.138;2023-05-08T03:24:59;102153.72;;;12.25;94.76
77062;BME280;65989;51.686;5.138;2023-05-08T03:27:27;102156.81;;;12.22;94.77
77062;BME280;65989;51.686;5.138;2023-05-08T03:29:54;102145.28;;;12.17;94.48
77062;BME280;65989;51.686;5.138;2023-05-08T03:32:23;102148.97;;;12.16;94.75
77062;BME280;65989;51.686;5.138;2023-05-08T03:34:50;102144.34;;;12.11;94.64
77062;BME280;65989;51.686;5.138;2023-05-08T03:37:17;102149.88;;;12.09;94.51
77062;BME280;65989;51.686;5.138;2023-05-08T03:39:42;102161.56;;;12.08;94.48
77062;BME280;65989;51.686;5.138;2023-05-08T03:42:08;102158.09;;;12.08;94.58
77062;BME280;65989;51.686;5.138;2023-05-08T03:44:34;102154.03;;;12.05;94.45
77062;BME280;65989;51.686;5.138;2023-05-08T03:47:01;102155.53;;;12.01;94.44
77062;BME280;65989;51.686;5.138;2023-05-08T03:49:28;102159.44;;;11.99;94.57
77062;BME280;65989;51.686;5.138;2023-05-08T03:51:55;102154.13;;;11.99;94.16
77062;BME280;65989;51.686;5.138;2023-05-08T03:54:21;102150.47;;;12.00;94.27
77062;BME280;65989;51.686;5.138;2023-05-08T03:56:50;102154.13;;;11.99;94.16
77062;BME280;65989;51.686;5.138;2023-05-08T03:59:36;102160.06;;;12.01;94.06
77062;BME280;65989;51.686;5.138;2023-05-08T04:02:16;102157.16;;;12.02;93.96
77062;BME280;65989;51.686;5.138;2023-05-08T04:04:44;102165.13;;;12.02;94.12
77062;BME280;65989;51.686;5.138;2023-05-08T04:07:18;102167.34;;;12.05;93.96
77062;BME280;65989;51.686;5.138;2023-05-08T04:10:12;102166.06;;;12.08;93.85
77062;BME280;65989;51.686;5.138;2023-05-08T04:15:28;102163.97;;;12.10;93.66
77062;BME280;65989;51.686;5.138;2023-05-08T04:18:07;102160.41;;;12.16;93.95
77062;BME280;65989;51.686;5.138;2023-05-08T04:20:34;102163.41;;;12.20;93.78
77062;BME280;65989;51.686;5.138;2023-05-08T04:23:03;102165.03;;;12.21;93.74
77062;BME280;65989;51.686;5.138;2023-05-08T04:25:31;102163.28;;;12.27;93.56
77062;BME280;65989;51.686;5.138;2023-05-08T04:27:58;102166.66;;;12.34;93.73
77062;BME280;65989;51.686;5.138;2023-05-08T04:30:24;102165.22;;;12.43;93.60
77062;BME280;65989;51.686;5.138;2023-05-08T04:32:50;102169.63;;;12.49;93.50
77062;BME280;65989;51.686;5.138;2023-05-08T04:35:16;102167.66;;;12.57;93.34
77062;BME280;65989;51.686;5.138;2023-05-08T04:37:42;102165.09;;;12.62;93.37
77062;BME280;65989;51.686;5.138;2023-05-08T04:40:08;102171.59;;;12.66;93.39
77062;BME280;65989;51.686;5.138;2023-05-08T04:42:34;102178.28;;;12.68;93.27
77062;BME280;65989;51.686;5.138;2023-05-08T04:45:01;102177.81;;;12.72;93.14
77062;BME280;65989;51.686;5.138;2023-05-08T04:47:26;102180.78;;;12.75;93.14
77062;BME280;65989;51.686;5.138;2023-05-08T04:49:52;102180.91;;;12.80;93.23
77062;BME280;65989;51.686;5.138;2023-05-08T04:52:17;102189.56;;;12.88;92.94
77062;BME280;65989;51.686;5.138;2023-05-08T04:54:43;102184.59;;;12.91;93.22
77062;BME280;65989;51.686;5.138;2023-05-08T04:57:08;102185.81;;;13.00;92.80
77062;BME280;65989;51.686;5.138;2023-05-08T04:59:33;102181.75;;;13.10;92.74
77062;BME280;65989;51.686;5.138;2023-05-08T05:01:59;102188.91;;;13.21;92.79
77062;BME280;65989;51.686;5.138;2023-05-08T05:04:27;102196.25;;;13.31;92.41
77062;BME280;65989;51.686;5.138;2023-05-08T05:06:53;102188.69;;;13.40;92.22
77062;BME280;65989;51.686;5.138;2023-05-08T05:09:18;102192.00;;;13.59;92.20
77062;BME280;65989;51.686;5.138;2023-05-08T05:11:44;102191.34;;;13.69;92.02
77062;BME280;65989;51.686;5.138;2023-05-08T05:14:10;102194.41;;;13.95;91.51
77062;BME280;65989;51.686;5.138;2023-05-08T05:16:35;102201.94;;;14.15;91.21
77062;BME280;65989;51.686;5.138;2023-05-08T05:19:01;102205.16;;;14.34;90.69
77062;BME280;65989;51.686;5.138;2023-05-08T05:21:26;102208.03;;;14.49;90.20
77062;BME280;65989;51.686;5.138;2023-05-08T05:23:52;102205.00;;;14.63;90.09
77062;BME280;65989;51.686;5.138;2023-05-08T05:26:18;102210.56;;;14.78;89.42
77062;BME280;65989;51.686;5.138;2023-05-08T05:28:43;102215.22;;;14.88;89.30
77062;BME280;65989;51.686;5.138;2023-05-08T05:31:09;102205.66;;;14.92;88.74
77062;BME280;65989;51.686;5.138;2023-05-08T05:33:34;102208.97;;;15.00;88.72
77062;BME280;65989;51.686;5.138;2023-05-08T05:36:00;102204.22;;;15.07;88.26
77062;BME280;65989;51.686;5.138;2023-05-08T05:38:25;102212.06;;;15.14;88.12
77062;BME280;65989;51.686;5.138;2023-05-08T05:40:51;102215.34;;;15.21;87.50
77062;BME280;65989;51.686;5.138;2023-05-08T05:43:16;102218.88;;;15.27;87.69
77062;BME280;65989;51.686;5.138;2023-05-08T05:45:42;102217.00;;;15.27;87.47
77062;BME280;65989;51.686;5.138;2023-05-08T05:48:07;102217.88;;;15.33;87.24
77062;BME280;65989;51.686;5.138;2023-05-08T05:50:35;102221.38;;;15.38;87.10
77062;BME280;65989;51.686;5.138;2023-05-08T05:53:14;102222.78;;;15.46;87.26
77062;BME280;65989;51.686;5.138;2023-05-08T05:55:40;102225.84;;;15.55;86.79
77062;BME280;65989;51.686;5.138;2023-05-08T05:58:05;102224.25;;;15.59;86.61
77062;BME280;65989;51.686;5.138;2023-05-08T06:00:30;102228.53;;;15.60;86.82
77062;BME280;65989;51.686;5.138;2023-05-08T06:02:56;102228.34;;;15.67;86.79
77062;BME280;65989;51.686;5.138;2023-05-08T06:05:24;102227.41;;;15.83;86.60
77062;BME280;65989;51.686;5.138;2023-05-08T06:07:50;102227.78;;;15.92;86.29
77062;BME280;65989;51.686;5.138;2023-05-08T06:10:15;102226.16;;;15.91;86.25
77062;BME280;65989;51.686;5.138;2023-05-08T06:12:41;102223.75;;;15.90;86.09
77062;BME280;65989;51.686;5.138;2023-05-08T06:15:07;102225.38;;;15.91;86.14
77062;BME280;65989;51.686;5.138;2023-05-08T06:17:32;102224.34;;;15.97;85.79
77062;BME280;65989;51.686;5.138;2023-05-08T06:19:58;102221.56;;;16.19;85.76
77062;BME280;65989;51.686;5.138;2023-05-08T06:22:23;102224.66;;;16.38;85.67
77062;BME280;65989;51.686;5.138;2023-05-08T06:24:50;102232.47;;;16.50;85.58
77062;BME280;65989;51.686;5.138;2023-05-08T06:27:19;102229.28;;;16.53;85.39
77062;BME280;65989;51.686;5.138;2023-05-08T06:29:48;102224.47;;;16.55;85.04
77062;BME280;65989;51.686;5.138;2023-05-08T06:32:20;102227.16;;;16.55;85.22
77062;BME280;65989;51.686;5.138;2023-05-08T06:34:46;102233.00;;;16.57;85.35
77062;BME280;65989;51.686;5.138;2023-05-08T06:37:11;102243.72;;;16.57;84.94
77062;BME280;65989;51.686;5.138;2023-05-08T06:39:37;102240.81;;;16.59;85.55
77062;BME280;65989;51.686;5.138;2023-05-08T06:42:02;102242.13;;;16.62;85.27
77062;BME280;65989;51.686;5.138;2023-05-08T06:44:31;102243.19;;;16.61;85.41
77062;BME280;65989;51.686;5.138;2023-05-08T06:46:56;102231.44;;;16.62;85.49
77062;BME280;65989;51.686;5.138;2023-05-08T06:49:21;102238.41;;;16.63;85.63
77062;BME280;65989;51.686;5.138;2023-05-08T06:51:47;102240.28;;;16.62;85.55
77062;BME280;65989;51.686;5.138;2023-05-08T06:54:13;102236.78;;;16.62;85.81
77062;BME280;65989;51.686;5.138;2023-05-08T06:56:38;102242.69;;;16.64;85.84
77062;BME280;65989;51.686;5.138;2023-05-08T06:59:04;102241.66;;;16.70;85.74
77062;BME280;65989;51.686;5.138;2023-05-08T07:01:29;102241.69;;;16.75;85.50
77062;BME280;65989;51.686;5.138;2023-05-08T07:03:55;102244.41;;;16.85;84.99
77062;BME280;65989;51.686;5.138;2023-05-08T07:06:20;102235.31;;;16.92;85.06
77062;BME280;65989;51.686;5.138;2023-05-08T07:08:46;102233.81;;;17.06;85.01
77062;BME280;65989;51.686;5.138;2023-05-08T07:11:11;102236.00;;;17.20;84.76
77062;BME280;65989;51.686;5.138;2023-05-08T07:13:37;102230.69;;;17.40;84.12
77062;BME280;65989;51.686;5.138;2023-05-08T07:16:08;102233.13;;;17.63;83.98
77062;BME280;65989;51.686;5.138;2023-05-08T07:18:33;102232.59;;;17.91;83.64
77062;BME280;65989;51.686;5.138;2023-05-08T07:20:58;102236.09;;;18.18;82.97
77062;BME280;65989;51.686;5.138;2023-05-08T07:23:24;102236.81;;;18.49;82.21
77062;BME280;65989;51.686;5.138;2023-05-08T07:25:50;102240.69;;;18.88;81.00
77062;BME280;65989;51.686;5.138;2023-05-08T07:28:17;102237.88;;;19.24;80.24
77062;BME280;65989;51.686;5.138;2023-05-08T07:30:42;102238.84;;;19.44;79.42
77062;BME280;65989;51.686;5.138;2023-05-08T07:33:08;102230.09;;;19.63;78.45
77062;BME280;65989;51.686;5.138;2023-05-08T07:35:33;102238.66;;;19.70;77.65
77062;BME280;65989;51.686;5.138;2023-05-08T07:37:58;102224.88;;;19.77;76.99
77062;BME280;65989;51.686;5.138;2023-05-08T07:40:24;102228.22;;;20.27;76.41
77062;BME280;65989;51.686;5.138;2023-05-08T07:42:49;102230.72;;;20.67;74.98
77062;BME280;65989;51.686;5.138;2023-05-08T07:45:15;102228.47;;;20.99;73.74
77062;BME280;65989;51.686;5.138;2023-05-08T07:47:54;102224.59;;;21.05;73.02
77062;BME280;65989;51.686;5.138;2023-05-08T07:50:21;102220.94;;;20.77;72.31
77062;BME280;65989;51.686;5.138;2023-05-08T07:52:46;102227.16;;;20.96;72.36
77062;BME280;65989;51.686;5.138;2023-05-08T07:55:13;102229.06;;;20.96;72.21
77062;BME280;65989;51.686;5.138;2023-05-08T07:57:39;102229.50;;;20.84;72.39
77062;BME280;65989;51.686;5.138;2023-05-08T08:00:06;102233.69;;;20.90;72.26
77062;BME280;65989;51.686;5.138;2023-05-08T08:02:32;102232.28;;;21.17;72.18
77062;BME280;65989;51.686;5.138;2023-05-08T08:04:57;102221.81;;;21.48;71.17
77062;BME280;65989;51.686;5.138;2023-05-08T08:07:22;102222.94;;;21.81;70.25
77062;BME280;65989;51.686;5.138;2023-05-08T08:09:48;102221.28;;;21.99;69.47
77062;BME280;65989;51.686;5.138;2023-05-08T08:12:13;102219.97;;;21.82;68.56
77062;BME280;65989;51.686;5.138;2023-05-08T08:14:39;102221.91;;;21.62;67.87
77062;BME280;65989;51.686;5.138;2023-05-08T08:17:05;102217.38;;;21.58;68.47
77062;BME280;65989;51.686;5.138;2023-05-08T08:19:30;102219.44;;;21.47;68.84
77062;BME280;65989;51.686;5.138;2023-05-08T08:21:56;102225.34;;;21.30;68.40
77062;BME280;65989;51.686;5.138;2023-05-08T08:24:22;102220.31;;;21.23;67.88
77062;BME280;65989;51.686;5.138;2023-05-08T08:26:47;102219.66;;;21.31;68.51
77062;BME280;65989;51.686;5.138;2023-05-08T08:29:13;102221.38;;;21.41;68.73
77062;BME280;65989;51.686;5.138;2023-05-08T08:31:38;102216.38;;;21.34;68.82
77062;BME280;65989;51.686;5.138;2023-05-08T08:34:03;102225.19;;;21.21;68.99
77062;BME280;65989;51.686;5.138;2023-05-08T08:36:29;102224.97;;;21.17;68.65
77062;BME280;65989;51.686;5.138;2023-05-08T08:38:54;102226.97;;;21.12;68.66
77062;BME280;65989;51.686;5.138;2023-05-08T08:41:20;102226.78;;;21.03;69.18
77062;BME280;65989;51.686;5.138;2023-05-08T08:43:46;102231.16;;;20.80;69.33
77062;BME280;65989;51.686;5.138;2023-05-08T08:46:12;102232.44;;;20.58;70.01
77062;BME280;65989;51.686;5.138;2023-05-08T08:48:43;102228.78;;;20.24;70.68
77062;BME280;65989;51.686;5.138;2023-05-08T08:51:13;102232.56;;;19.94;70.93
77062;BME280;65989;51.686;5.138;2023-05-08T08:53:45;102229.50;;;19.71;71.55
77062;BME280;65989;51.686;5.138;2023-05-08T08:56:15;102230.09;;;19.63;72.40
77062;BME280;65989;51.686;5.138;2023-05-08T08:58:50;102234.75;;;19.52;72.28
77062;BME280;65989;51.686;5.138;2023-05-08T09:01:18;102234.03;;;19.36;73.00
77062;BME280;65989;51.686;5.138;2023-05-08T09:03:44;102240.09;;;19.12;72.92
77062;BME280;65989;51.686;5.138;2023-05-08T09:06:11;102235.31;;;18.99;73.24
77062;BME280;65989;51.686;5.138;2023-05-08T09:08:36;102228.88;;;18.94;74.03
77062;BME280;65989;51.686;5.138;2023-05-08T09:11:02;102233.47;;;18.89;74.76
77062;BME280;65989;51.686;5.138;2023-05-08T09:13:28;102233.47;;;18.89;74.85
77062;BME280;65989;51.686;5.138;2023-05-08T09:15:56;102227.00;;;19.00;75.33
77062;BME280;65989;51.686;5.138;2023-05-08T09:18:22;102241.94;;;19.22;75.24
77062;BME280;65989;51.686;5.138;2023-05-08T09:20:48;102239.38;;;19.46;74.95
77062;BME280;65989;51.686;5.138;2023-05-08T09:23:14;102244.50;;;19.77;74.89
77062;BME280;65989;51.686;5.138;2023-05-08T09:25:47;102233.38;;;19.94;73.94
77062;BME280;65989;51.686;5.138;2023-05-08T09:28:25;102234.94;;;20.01;72.80
77062;BME280;65989;51.686;5.138;2023-05-08T09:30:58;102231.72;;;19.98;72.29
77062;BME280;65989;51.686;5.138;2023-05-08T09:33:27;102227.66;;;20.01;72.84
77062;BME280;65989;51.686;5.138;2023-05-08T09:35:54;102229.34;;;20.21;72.22
77062;BME280;65989;51.686;5.138;2023-05-08T09:38:36;102232.13;;;20.65;71.88
77062;BME280;65989;51.686;5.138;2023-05-08T09:41:12;102225.78;;;20.99;71.10
77062;BME280;65989;51.686;5.138;2023-05-08T09:43:42;102222.94;;;21.28;69.95
77062;BME280;65989;51.686;5.138;2023-05-08T09:46:24;102229.75;;;21.59;69.88
77062;BME280;65989;51.686;5.138;2023-05-08T09:48:52;102225.72;;;21.56;68.38
77062;BME280;65989;51.686;5.138;2023-05-08T09:51:18;102234.09;;;21.41;67.54
77062;BME280;65989;51.686;5.138;2023-05-08T09:53:44;102229.66;;;21.31;68.15
77062;BME280;65989;51.686;5.138;2023-05-08T09:56:09;102236.13;;;21.30;68.65
77062;BME280;65989;51.686;5.138;2023-05-08T09:58:39;102227.81;;;21.26;68.41
77062;BME280;65989;51.686;5.138;2023-05-08T10:01:26;102233.13;;;21.31;68.15
77062;BME280;65989;51.686;5.138;2023-05-08T10:03:51;102225.47;;;21.39;67.75
77062;BME280;65989;51.686;5.138;2023-05-08T10:06:16;102226.44;;;21.48;67.72
77062;BME280;65989;51.686;5.138;2023-05-08T10:08:42;102233.13;;;21.70;67.31
77062;BME280;65989;51.686;5.138;2023-05-08T10:11:18;102223.47;;;21.97;66.06
77062;BME280;65989;51.686;5.138;2023-05-08T10:13:44;102235.06;;;22.44;66.52
77062;BME280;65989;51.686;5.138;2023-05-08T10:16:14;102229.09;;;22.98;65.48
77062;BME280;65989;51.686;5.138;2023-05-08T10:18:48;102218.94;;;23.18;63.79
77062;BME280;65989;51.686;5.138;2023-05-08T10:21:14;102220.16;;;23.11;63.33
77062;BME280;65989;51.686;5.138;2023-05-08T10:23:46;102224.66;;;23.39;63.06
77062;BME280;65989;51.686;5.138;2023-05-08T10:26:19;102220.00;;;23.53;63.10
77062;BME280;65989;51.686;5.138;2023-05-08T10:28:56;102215.00;;;23.69;62.23
77062;BME280;65989;51.686;5.138;2023-05-08T10:31:27;102222.16;;;23.65;61.85
77062;BME280;65989;51.686;5.138;2023-05-08T10:33:54;102224.69;;;23.62;62.15
77062;BME280;65989;51.686;5.138;2023-05-08T10:36:24;102215.56;;;23.58;62.25
77062;BME280;65989;51.686;5.138;2023-05-08T10:38:50;102223.19;;;23.55;60.97
77062;BME280;65989;51.686;5.138;2023-05-08T10:41:18;102210.94;;;23.58;60.69
77062;BME280;65989;51.686;5.138;2023-05-08T10:43:44;102218.47;;;23.38;59.54
77062;BME280;65989;51.686;5.138;2023-05-08T10:46:36;102209.81;;;23.27;61.30
77062;BME280;65989;51.686;5.138;2023-05-08T10:49:14;102223.53;;;22.80;61.56
77062;BME280;65989;51.686;5.138;2023-05-08T10:51:46;102219.44;;;22.69;62.65
77062;BME280;65989;51.686;5.138;2023-05-08T10:54:45;102216.66;;;22.46;62.08
77062;BME280;65989;51.686;5.138;2023-05-08T10:57:09;102210.03;;;22.52;62.18
77062;BME280;65989;51.686;5.138;2023-05-08T10:59:36;102209.22;;;22.66;61.77
77062;BME280;65989;51.686;5.138;2023-05-08T11:02:07;102203.75;;;22.94;61.42
77062;BME280;65989;51.686;5.138;2023-05-08T11:04:33;102209.31;;;23.25;61.51
77062;BME280;65989;51.686;5.138;2023-05-08T11:06:58;102204.06;;;23.29;59.56
77062;BME280;65989;51.686;5.138;2023-05-08T11:09:29;102198.09;;;23.41;60.89
77062;BME280;65989;51.686;5.138;2023-05-08T11:12:18;102198.13;;;23.64;60.89
77062;BME280;65989;51.686;5.138;2023-05-08T11:14:54;102195.78;;;23.48;59.16
77062;BME280;65989;51.686;5.138;2023-05-08T11:17:23;102190.00;;;23.41;60.06
77062;BME280;65989;51.686;5.138;2023-05-08T11:19:56;102181.22;;;23.35;60.51
77062;BME280;65989;51.686;5.138;2023-05-08T11:22:29;102192.16;;;23.30;60.41
77062;BME280;65989;51.686;5.138;2023-05-08T11:30:38;102172.28;;;23.58;60.13
77062;BME280;65989;51.686;5.138;2023-05-08T11:38:32;102173.44;;;23.20;59.82
77062;BME280;65989;51.686;5.138;2023-05-08T11:41:08;102182.75;;;22.91;60.79
77062;BME280;65989;51.686;5.138;2023-05-08T11:46:11;102181.06;;;22.81;61.90
77062;BME280;65989;51.686;5.138;2023-05-08T11:48:38;102181.91;;;23.04;60.90
77062;BME280;65989;51.686;5.138;2023-05-08T11:51:04;102175.19;;;23.16;60.58
77062;BME280;65989;51.686;5.138;2023-05-08T11:53:29;102172.59;;;23.33;60.81
77062;BME280;65989;51.686;5.138;2023-05-08T11:55:56;102175.84;;;23.44;59.59
77062;BME280;65989;51.686;5.138;2023-05-08T11:58:21;102173.28;;;23.62;59.46
77062;BME280;65989;51.686;5.138;2023-05-08T12:00:47;102169.22;;;23.82;58.67
77062;BME280;65989;51.686;5.138;2023-05-08T12:03:14;102166.38;;;23.87;58.76
77062;BME280;65989;51.686;5.138;2023-05-08T12:05:41;102164.00;;;23.94;58.87
77062;BME280;65989;51.686;5.138;2023-05-08T12:08:10;102156.91;;;23.98;58.73
77062;BME280;65989;51.686;5.138;2023-05-08T12:15:46;102166.59;;;23.68;57.89
77062;BME280;65989;51.686;5.138;2023-05-08T12:18:12;102169.88;;;23.56;59.02
77062;BME280;65989;51.686;5.138;2023-05-08T12:20:38;102169.47;;;23.40;59.01
77062;BME280;65989;51.686;5.138;2023-05-08T12:23:03;102161.28;;;23.54;58.90
77062;BME280;65989;51.686;5.138;2023-05-08T12:25:29;102160.06;;;23.69;58.12
77062;BME280;65989;51.686;5.138;2023-05-08T12:27:55;102147.22;;;23.75;57.29
77062;BME280;65989;51.686;5.138;2023-05-08T12:30:21;102151.41;;;23.81;58.54
77062;BME280;65989;51.686;5.138;2023-05-08T12:32:47;102164.22;;;23.98;58.84
77062;BME280;65989;51.686;5.138;2023-05-08T12:35:13;102155.53;;;24.19;58.00
77062;BME280;65989;51.686;5.138;2023-05-08T12:37:39;102144.41;;;24.29;58.30
77062;BME280;65989;51.686;5.138;2023-05-08T12:40:06;102148.44;;;24.49;57.66
77062;BME280;65989;51.686;5.138;2023-05-08T12:42:48;102141.09;;;24.58;58.07
77062;BME280;65989;51.686;5.138;2023-05-08T12:45:28;102130.59;;;24.48;56.80
77062;BME280;65989;51.686;5.138;2023-05-08T12:47:59;102137.06;;;24.38;56.87
77062;BME280;65989;51.686;5.138;2023-05-08T12:50:25;102132.28;;;24.35;57.14
77062;BME280;65989;51.686;5.138;2023-05-08T12:52:51;102131.69;;;24.47;57.50
77062;BME280;65989;51.686;5.138;2023-05-08T12:55:27;102127.88;;;24.57;57.35
77062;BME280;65989;51.686;5.138;2023-05-08T12:58:10;102124.47;;;24.25;56.42
77062;BME280;65989;51.686;5.138;2023-05-08T13:00:40;102123.41;;;23.94;56.94
77062;BME280;65989;51.686;5.138;2023-05-08T13:03:08;102112.19;;;23.69;57.06
77062;BME280;65989;51.686;5.138;2023-05-08T13:05:35;102121.94;;;23.88;57.81
77062;BME280;65989;51.686;5.138;2023-05-08T13:08:06;102119.22;;;24.28;58.33
77062;BME280;65989;51.686;5.138;2023-05-08T13:10:53;102102.81;;;24.51;57.38
77062;BME280;65989;51.686;5.138;2023-05-08T13:13:23;102116.56;;;24.55;56.90
77062;BME280;65989;51.686;5.138;2023-05-08T13:15:51;102111.13;;;24.55;56.31
77062;BME280;65989;51.686;5.138;2023-05-08T13:18:18;102119.09;;;24.51;56.18
77062;BME280;65989;51.686;5.138;2023-05-08T13:20:44;102118.63;;;24.49;55.26
77062;BME280;65989;51.686;5.138;2023-05-08T13:23:11;102116.69;;;24.58;54.78
77062;BME280;65989;51.686;5.138;2023-05-08T13:25:37;102116.88;;;24.71;55.11
77062;BME280;65989;51.686;5.138;2023-05-08T13:28:03;102116.91;;;24.80;54.82
77062;BME280;65989;51.686;5.138;2023-05-08T13:30:29;102115.94;;;24.93;54.35
77062;BME280;65989;51.686;5.138;2023-05-08T13:32:54;102107.16;;;24.87;53.50
77062;BME280;65989;51.686;5.138;2023-05-08T13:35:20;102111.16;;;24.90;54.75
77062;BME280;65989;51.686;5.138;2023-05-08T13:37:47;102122.94;;;24.85;54.70
77062;BME280;65989;51.686;5.138;2023-05-08T13:40:13;102118.50;;;24.72;55.00